• Join FlightAware (Why Join?)
  • Login
  • US Flag 
03:58PM EDT


 

Airport Tracker/Info


-or-


 

Live Flight TrackerFlight Track Log ✈ SWA310 ✈ 27-Jun-2013 ✈ KDEN - KSFO

Flight Track Log - Related Links

Times and Time Zones

All times are in EDT time to prevent confusion due to time zone crossing. See the SWA310 flight status page for this flight to view local times or setup timezone preferences in your user account.

Time Position Orientation Groundspeed Altitude Reporting Facility
EDT Latitude Longitude Course Direction KTS MPH feet Rate Location/Type
02:43PM 39.9167 -104.7500 285° West 226 260 7,500  Level Denver TRACON
02:44PM 39.9333 -104.8333 285° West 251 289 9,900 2,100 Climbing Denver TRACON
02:45PM 39.9358 -104.9072 273° West 287 330 11,100 2,520 Climbing Denver Center
02:46PM 39.9253 -105.0200 263° West 293 337 14,500 2,940 Climbing Denver Center
02:47PM 39.9153 -105.1286 263° West 301 346 17,200 2,220 Climbing Denver Center
02:48PM 39.9033 -105.2564 263° West 329 379 19,200 1,980 Climbing Denver Center
02:49PM 39.8925 -105.3844 264° West 355 409 21,300 1,800 Climbing Denver Center
02:50PM 39.8806 -105.5183 263° West 373 429 23,000 1,080 Climbing Denver Center
02:51PM 39.8689 -105.6353 263° West 384 442 23,600 1,200 Climbing Denver Center
02:52PM 39.8533 -105.8133 264° West 419 482 25,600 1,740 Climbing Denver Center
02:53PM 39.8381 -105.9625 262° West 417 480 27,300 1,560 Climbing Denver Center
02:54PM 39.8244 -106.1203 264° West 437 503 28,900 1,680 Climbing Denver Center
02:55PM 39.8081 -106.3136 264° West 449 517 30,800 1,560 Climbing Denver Center
02:56PM 39.7964 -106.4431 263° West 453 521 32,100 1,500 Climbing Denver Center
02:57PM 39.7789 -106.6364 263° West 452 520 33,900 1,560 Climbing Denver Center
02:58PM 39.7750 -106.7972 268° West 450 518 35,400 1,320 Climbing Denver Center
02:59PM 39.7697 -106.9628 268° West 453 521 36,700 1,020 Climbing Denver Center
03:00PM 39.7683 -107.0867 269° West 448 516 37,600 600 Climbing Denver Center
03:01PM 39.7536 -107.2936 265° West 443 510 38,000 180 Climbing Denver Center
03:02PM 39.7317 -107.4711 261° West 446 513 38,000  Level Denver Center
03:03PM 39.7139 -107.6214 261° West 443 510 38,000  Level Denver Center
03:04PM 39.6931 -107.7978 261° West 440 506 38,000  Level Denver Center
03:06PM 39.6733 -107.9492 260° West 443 510 38,000  Level Denver Center
03:07PM 39.6392 -108.2247 261° West 442 509 38,000  Level Salt Lake Center
03:08PM 39.6164 -108.3994 260° West 441 507 38,000  Level Salt Lake Center
03:09PM 39.5964 -108.5506 260° West 442 509 38,000  Level Salt Lake Center
03:10PM 39.5722 -108.7319 260° West 453 521 38,000  Level Salt Lake Center
03:11PM 39.5497 -108.8939 260° West 458 527 38,000  Level Salt Lake Center
03:12PM 39.5311 -109.0464 261° West 447 514 38,000  Level Salt Lake Center
03:13PM 39.5075 -109.2228 260° West 445 512 38,000  Level Salt Lake Center
03:14PM 39.4869 -109.3736 260° West 445 512 38,000  Level Salt Lake Center
03:15PM 39.4625 -109.5500 260° West 444 511 38,000  Level Salt Lake Center
03:16PM 39.4422 -109.7011 260° West 446 513 38,000  Level Salt Lake Center
03:17PM 39.4164 -109.8756 259° West 442 509 38,000  Level Salt Lake Center
03:18PM 39.3961 -110.0261 260° West 444 511 38,000  Level Salt Lake Center
03:20PM 39.3706 -110.2000 259° West 441 507 38,000  Level Salt Lake Center
03:21PM 39.3483 -110.3489 259° West 440 506 38,000  Level Salt Lake Center
03:22PM 39.3231 -110.5231 259° West 441 507 38,000  Level Salt Lake Center
03:23PM 39.3017 -110.6728 260° West 442 509 38,000  Level Salt Lake Center
03:24PM 39.2800 -110.8225 259° West 444 511 38,000  Level Salt Lake Center
03:25PM 39.2525 -110.9969 259° West 443 510 38,000  Level Salt Lake Center
03:26PM 39.2289 -111.1467 259° West 445 512 38,000  Level Salt Lake Center
03:27PM 39.2033 -111.3203 259° West 445 512 38,000  Level Salt Lake Center
03:28PM 39.1792 -111.4761 259° West 446 513 38,000  Level Salt Lake Center
03:29PM 39.1539 -111.6306 258° West 443 510 38,000  Level Salt Lake Center
03:30PM 39.1303 -111.7853 259° West 443 510 38,000  Level Salt Lake Center
03:31PM 39.0994 -111.9689 258° West 439 505 38,000  Level Salt Lake Center
03:32PM 39.0747 -112.1231 258° West 440 506 38,000  Level Salt Lake Center
03:33PM 39.0506 -112.2753 258° West 437 503 38,000  Level Salt Lake Center
03:34PM 39.0253 -112.4278 258° West 438 504 38,000  Level Salt Lake Center
03:35PM 38.9994 -112.5797 258° West 438 504 38,000  Level Salt Lake Center
03:36PM 38.9750 -112.7317 258° West 437 503 38,000  Level Salt Lake Center
03:37PM 38.9428 -112.9136 257° West 437 503 38,000  Level Salt Lake Center
03:38PM 38.9169 -113.0658 258° West 438 504 38,000  Level Salt Lake Center
03:39PM 38.8903 -113.2186 257° West 440 506 38,000  Level Salt Lake Center
03:40PM 38.8633 -113.3719 257° West 441 507 38,000  Level Salt Lake Center
03:41PM 38.8369 -113.5214 257° West 433 498 38,000  Level Salt Lake Center
03:42PM 38.8053 -113.7031 257° West 436 502 38,000  Level Salt Lake Center
03:43PM 38.7786 -113.8508 257° West 431 496 38,000  Level Salt Lake Center
03:44PM 38.7531 -113.9994 258° West 428 493 38,000  Level Salt Lake Center
03:45PM 38.7256 -114.1486 257° West 431 496 38,000  Level Salt Lake Center
03:46PM 38.6983 -114.2956 257° West 429 494 38,000  Level Salt Lake Center
03:47PM 38.6717 -114.4442 257° West 431 496 38,000  Level Salt Lake Center
03:48PM 38.6381 -114.6231 257° West 431 496 38,000  Level Salt Lake Center
03:50PM 38.6089 -114.7728 256° West 434 499 38,000  Level Salt Lake Center
03:51PM 38.5808 -114.9203 256° West 432 497 38,000  Level Salt Lake Center
03:52PM 38.5528 -115.0686 256° West 430 495 38,000  Level Salt Lake Center
03:53PM 38.5244 -115.2158 256° West 430 495 38,000  Level Salt Lake Center
03:54PM 38.4917 -115.3875 256° West 432 497 38,000  Level Salt Lake Center
03:55PM 38.4631 -115.5375 256° West 435 501 38,000  Level Salt Lake Center
03:56PM 38.4333 -115.6875 256° West 436 502 38,000  Level Salt Lake Center
03:57PM 38.4044 -115.8369 256° West 436 502 38,000  Level Salt Lake Center
03:58PM 38.3742 -115.9881 256° West 438 504 38,000  Level Salt Lake Center
03:59PM 38.3433 -116.1369 255° West 436 502 38,000  Level Salt Lake Center
04:00PM 38.3083 -116.3153 256° West 434 499 38,000  Level Salt Lake Center
04:01PM 38.2778 -116.4631 255° West 433 498 38,000  Level Salt Lake Center
04:02PM 38.2408 -116.6406 255° West 430 495 38,000  Level Oakland Center
04:03PM 38.2103 -116.7886 255° West 432 497 38,000  Level Oakland Center
04:04PM 38.1864 -116.9078 256° West 433 498 38,000  Level Salt Lake Center
04:05PM 38.1558 -117.0550 255° West 432 497 38,000  Level Salt Lake Center
04:06PM 38.1244 -117.2064 255° West 438 504 38,000  Level Salt Lake Center
04:07PM 38.0872 -117.3775 255° West 455 524 38,000  Level Salt Lake Center
04:08PM 38.0567 -117.5258 255° West 438 504 38,000  Level Salt Lake Center
04:09PM 38.0169 -117.7064 254° West 439 505 38,000  Level Oakland Center
04:10PM 37.9947 -117.8569 259° West 436 502 38,000  Level Oakland Center
04:11PM 37.9778 -118.0100 262° West 439 505 38,000  Level Oakland Center
04:12PM 37.9628 -118.1622 263° West 436 502 38,000  Level Oakland Center
04:13PM 37.9456 -118.3133 262° West 434 499 38,000  Level Oakland Center
04:14PM 37.9283 -118.4644 262° West 432 497 38,000  Level Oakland Center
04:15PM 37.9128 -118.6164 263° West 434 499 38,000  Level Oakland Center
04:16PM 37.8911 -118.8019 262° West 441 507 38,000  Level Oakland Center
04:17PM 37.8750 -118.9464 262° West 442 509 38,000  Level Oakland Center
04:18PM 37.8586 -119.0969 262° West 441 507 38,000  Level Oakland Center
04:19PM 37.8392 -119.2514 261° West 442 509 38,000  Level Oakland Center
04:20PM 37.8214 -119.4028 262° West 438 504 38,000 -120 Level Oakland Center
04:22PM 37.8036 -119.5542 262° West 436 502 37,800 -720 Descending Oakland Center
04:23PM 37.7811 -119.7364 261° West 437 503 36,600 -1,080 Descending Oakland Center
04:24PM 37.7628 -119.8883 261° West 436 502 35,700 -960 Descending Oakland Center
04:25PM 37.7442 -120.0411 261° West 440 506 34,700 -1,080 Descending Oakland Center
04:26PM 37.7261 -120.1944 262° West 441 507 33,600 -1,800 Descending Oakland Center
04:27PM 37.7058 -120.3489 261° West 442 509 31,100 -2,400 Descending Oakland Center
04:28PM 37.6869 -120.4969 261° West 431 496 28,800 -2,340 Descending Oakland Center
04:29PM 37.6667 -120.6667 261° West 418 481 26,500 -2,940 Descending Northern Cal TRACON
04:30PM 37.6500 -120.7833 260° West 412 474 23,300 -2,760 Descending Northern Cal TRACON
04:31PM 37.6333 -120.9333 262° West 385 443 21,000 -2,100 Descending Northern Cal TRACON
04:32PM 37.6167 -121.0500 260° West 373 429 19,100 -1,980 Descending Northern Cal TRACON
04:33PM 37.6000 -121.1833 261° West 371 427 17,100 -1,920 Descending Northern Cal TRACON
04:34PM 37.5833 -121.3000 260° West 355 409 15,300 -2,040 Descending Northern Cal TRACON
04:35PM 37.5833 -121.4167 270° West 349 402 13,300 -1,920 Descending Northern Cal TRACON
04:36PM 37.5667 -121.5500 261° West 338 389 11,300 -1,200 Descending Northern Cal TRACON
04:37PM 37.5500 -121.6500 258° West 302 348 10,900 -180 Descending Northern Cal TRACON
04:38PM 37.5833 -121.7333 297° West 248 285 11,000 -300 Climbing Northern Cal TRACON
04:39PM 37.6000 -121.8167 284° West 255 293 10,400 -900 Descending Northern Cal TRACON
04:40PM 37.5333 -121.8333 191° South 241 277 9,300 -960 Descending Northern Cal TRACON
04:41PM 37.4667 -121.8500 191° South 214 246 8,500 -720 Descending Northern Cal TRACON
04:42PM 37.4500 -121.9167 253° West 212 244 7,900 -600 Descending Northern Cal TRACON
04:43PM 37.4833 -121.9833 302° West 207 238 7,300 -960 Descending Northern Cal TRACON
04:44PM 37.5000 -122.0333 293° West 203 234 6,100 -1,140 Descending Northern Cal TRACON
04:45PM 37.5333 -122.0833 310° West 179 206 5,200 -1,260 Descending Northern Cal TRACON
04:46PM 37.5500 -122.1500 288° West 171 197 3,500 -1,320 Descending Northern Cal TRACON
04:47PM 37.5667 -122.2000 293° West 157 181 2,600 -960 Descending Northern Cal TRACON
04:48PM 37.5833 -122.2500 293° West 144 166 1,600 -780 Descending Northern Cal TRACON
04:49PM 37.5833 -122.3000 270° West 132 152 1,000 -660 Descending Northern Cal TRACON
04:50PM 37.6000 -122.3333 302° West 129 148 300 -720 Descending Northern Cal TRACON
04:52PM 37.6167 -122.3667 322° Northwest  Level FlightAware Approximate
04:59PM 37.6191 -122.3752 322° Northwest  Level Estimated